createdAt,value
2019-02-22T00:02:25.857Z,102161.33
2019-02-22T00:04:59.161Z,102170.45
2019-02-22T00:07:32.470Z,102172.16
2019-02-22T00:10:06.689Z,102166.85
2019-02-22T00:12:39.997Z,102171.60
2019-02-22T00:15:13.270Z,102168.06
2019-02-22T00:17:46.582Z,102171.08
2019-02-22T00:20:19.865Z,102181.87
2019-02-22T00:22:53.182Z,102188.84
2019-02-22T00:25:26.473Z,102183.61
2019-02-22T00:28:00.282Z,102181.18
2019-02-22T00:30:33.620Z,102169.07
2019-02-22T00:33:06.955Z,102174.77
2019-02-22T00:35:40.285Z,102170.61
2019-02-22T00:38:13.526Z,102180.09
2019-02-22T00:40:46.803Z,102167.31
2019-02-22T00:43:20.117Z,102172.05
2019-02-22T00:45:53.383Z,102177.36
2019-02-22T00:48:26.681Z,102180.45
2019-02-22T00:51:00.007Z,102190.52
2019-02-22T00:53:33.279Z,102190.92
2019-02-22T00:56:06.565Z,102201.39
2019-02-22T00:58:39.855Z,102209.25
2019-02-22T01:01:13.132Z,102198.78
2019-02-22T01:03:46.437Z,102204.11
2019-02-22T01:06:19.727Z,102198.88
2019-02-22T01:08:52.997Z,102200.63
2019-02-22T01:11:26.284Z,102193.33
2019-02-22T01:13:59.595Z,102204.69
2019-02-22T01:16:32.862Z,102201.11
2019-02-22T01:19:06.150Z,102195.35
2019-02-22T01:21:39.425Z,102191.41
2019-02-22T01:24:12.722Z,102195.77
2019-02-22T01:26:46.002Z,102207.05
2019-02-22T01:29:19.316Z,102199.78
2019-02-22T01:31:52.582Z,102197.59
2019-02-22T01:34:25.907Z,102195.45
2019-02-22T01:36:59.170Z,102206.43
2019-02-22T01:39:32.466Z,102207.36
2019-02-22T01:42:05.749Z,102196.47
2019-02-22T01:44:39.029Z,102200.87
2019-02-22T01:47:12.316Z,102199.95
2019-02-22T01:49:45.612Z,102201.93
2019-02-22T01:52:18.909Z,102213.17
2019-02-22T01:54:52.223Z,102212.80
2019-02-22T01:57:25.503Z,102220.63
2019-02-22T01:59:58.804Z,102217.08
2019-02-22T02:02:32.072Z,102219.23
2019-02-22T02:05:05.437Z,102219.23
2019-02-22T02:07:38.729Z,102220.55
2019-02-22T02:10:12.080Z,102224.16
2019-02-22T02:12:45.363Z,102222.46
2019-02-22T02:15:18.732Z,102223.84
2019-02-22T02:17:52.015Z,102225.95
2019-02-22T02:20:25.333Z,102222.31
2019-02-22T02:22:58.606Z,102221.52
2019-02-22T02:25:31.898Z,102228.19
2019-02-22T02:28:07.863Z,102227.37
2019-02-22T02:30:41.230Z,102232.20
2019-02-22T02:33:14.437Z,102233.52
2019-02-22T02:35:47.721Z,102238.31
2019-02-22T02:38:20.981Z,102235.62
2019-02-22T02:41:06.834Z,102238.22
2019-02-22T02:43:29.298Z,102240.88
2019-02-22T02:46:02.606Z,102239.14
2019-02-22T02:48:35.883Z,102243.47
2019-02-22T02:51:09.169Z,102244.27
2019-02-22T02:53:42.454Z,102240.67
2019-02-22T02:56:17.444Z,102241.47
2019-02-22T02:58:50.736Z,102236.33
2019-02-22T03:01:24.027Z,102241.55
2019-02-22T03:03:57.321Z,102245.47
2019-02-22T03:06:34.700Z,102238.44
2019-02-22T03:09:09.619Z,102235.81
2019-02-22T03:11:42.921Z,102240.16
2019-02-22T03:14:16.202Z,102238.85
2019-02-22T03:16:49.515Z,102240.63
2019-02-22T03:19:22.801Z,102238.85
2019-02-22T03:21:56.109Z,102235.40
2019-02-22T03:24:29.378Z,102232.73
2019-02-22T03:27:02.749Z,102239.72
2019-02-22T03:29:36.025Z,102241.03
2019-02-22T03:32:09.318Z,102242.34
2019-02-22T03:34:42.602Z,102242.29
2019-02-22T03:37:15.908Z,102252.52
2019-02-22T03:39:49.199Z,102252.54
2019-02-22T03:42:22.512Z,102251.25
2019-02-22T03:44:55.855Z,102255.17
2019-02-22T03:47:29.142Z,102256.95
2019-02-22T03:50:02.435Z,102264.81
2019-02-22T03:52:47.620Z,102260.97
2019-02-22T03:55:20.889Z,102256.16
2019-02-22T03:57:54.186Z,102260.19
2019-02-22T04:00:27.494Z,102266.91
2019-02-22T04:03:00.849Z,102270.98
2019-02-22T04:05:34.134Z,102270.18
2019-02-22T04:08:08.506Z,102276.40
2019-02-22T04:10:41.795Z,102279.85
2019-02-22T04:13:15.095Z,102277.66
2019-02-22T04:15:48.387Z,102280.25
2019-02-22T04:18:21.687Z,102278.11
2019-02-22T04:20:54.945Z,102282.44
2019-02-22T04:23:28.265Z,102275.80
2019-02-22T04:26:01.538Z,102276.30
2019-02-22T04:28:34.847Z,102281.53
2019-02-22T04:31:08.147Z,102281.53
2019-02-22T04:33:41.467Z,102282.88
2019-02-22T04:36:14.736Z,102282.36
2019-02-22T04:38:48.044Z,102281.93
2019-02-22T04:41:21.334Z,102287.11
2019-02-22T04:43:54.620Z,102286.20
2019-02-22T04:46:27.920Z,102285.78
2019-02-22T04:49:01.193Z,102291.86
2019-02-22T04:51:34.517Z,102291.86
2019-02-22T04:54:07.804Z,102303.16
2019-02-22T04:56:41.096Z,102299.17
2019-02-22T04:59:14.378Z,102300.93
2019-02-22T05:01:47.684Z,102303.89
2019-02-22T05:04:20.965Z,102302.14
2019-02-22T05:06:54.264Z,102300.05
2019-02-22T05:09:27.552Z,102310.52
2019-02-22T05:12:10.505Z,102307.42
2019-02-22T05:14:35.878Z,102306.11
2019-02-22T05:17:09.178Z,102306.97
2019-02-22T05:19:42.951Z,102301.86
2019-02-22T05:22:16.229Z,102306.86
2019-02-22T05:24:49.508Z,102310.84
2019-02-22T05:27:24.000Z,102306.95
2019-02-22T05:29:57.267Z,102316.93
2019-02-22T05:32:30.575Z,102315.58
2019-02-22T05:35:03.990Z,102316.19
2019-02-22T05:37:37.281Z,102314.41
2019-02-22T05:40:10.638Z,102321.84
2019-02-22T05:42:43.943Z,102326.59
2019-02-22T05:45:17.249Z,102323.55
2019-02-22T05:47:50.552Z,102333.11
2019-02-22T05:50:23.850Z,102336.52
2019-02-22T05:52:57.529Z,102342.59
2019-02-22T05:55:30.823Z,102349.66
2019-02-22T05:58:04.127Z,102353.22
2019-02-22T06:00:37.398Z,102359.79
2019-02-22T06:03:10.694Z,102367.83
2019-02-22T06:05:44.001Z,102369.16
2019-02-22T06:08:17.779Z,102378.73
2019-02-22T06:10:51.067Z,102380.13
2019-02-22T06:13:24.357Z,102387.19
2019-02-22T06:15:57.696Z,102393.69
2019-02-22T06:18:30.997Z,102398.10
2019-02-22T06:21:04.266Z,102393.88
2019-02-22T06:23:37.557Z,102395.27
2019-02-22T06:26:10.852Z,102401.72
2019-02-22T06:28:44.129Z,102398.38
2019-02-22T06:31:17.416Z,102402.48
2019-02-22T06:33:50.717Z,102405.65
2019-02-22T06:36:24.004Z,102400.89
2019-02-22T06:38:57.300Z,102403.18
2019-02-22T06:41:30.575Z,102401.47
2019-02-22T06:44:04.173Z,102407.15
2019-02-22T06:46:37.451Z,102407.55
2019-02-22T06:49:10.746Z,102402.19
2019-02-22T06:51:44.037Z,102401.23
2019-02-22T06:54:17.336Z,102410.69
2019-02-22T06:56:50.637Z,102415.75
2019-02-22T06:59:23.951Z,102424.41
2019-02-22T07:01:57.794Z,102434.83
2019-02-22T07:04:31.118Z,102423.86
2019-02-22T07:07:04.474Z,102421.24
2019-02-22T07:09:37.797Z,102423.45
2019-02-22T07:12:12.740Z,102427.10
2019-02-22T07:14:46.041Z,102439.00
2019-02-22T07:17:19.337Z,102433.55
2019-02-22T07:19:52.626Z,102431.94
2019-02-22T07:22:25.926Z,102428.43
2019-02-22T07:24:59.264Z,102434.63
2019-02-22T07:27:32.554Z,102436.36
2019-02-22T07:30:08.882Z,102438.27
2019-02-22T07:32:42.353Z,102439.70
2019-02-22T07:35:15.794Z,102447.65
2019-02-22T07:37:49.071Z,102444.03
2019-02-22T07:40:22.386Z,102452.47
2019-02-22T07:42:55.674Z,102464.95
2019-02-22T07:45:29.001Z,102459.31
2019-02-22T07:48:02.291Z,102462.91
2019-02-22T07:50:36.646Z,102468.27
2019-02-22T07:53:09.926Z,102465.34
2019-02-22T07:55:43.304Z,102470.77
2019-02-22T07:58:16.578Z,102481.49
2019-02-22T08:00:49.917Z,102494.20
2019-02-22T08:03:23.279Z,102487.23
2019-02-22T08:05:56.623Z,102488.47
2019-02-22T08:08:29.884Z,102487.31
2019-02-22T08:11:03.312Z,102482.22
2019-02-22T08:13:36.619Z,102471.39
2019-02-22T08:16:09.925Z,102482.56
2019-02-22T08:18:43.503Z,102483.94
2019-02-22T08:21:16.812Z,102480.91
2019-02-22T08:23:50.164Z,102496.05
2019-02-22T08:26:23.935Z,102496.98
2019-02-22T08:28:57.242Z,102503.02
2019-02-22T08:31:30.579Z,102505.83
2019-02-22T08:34:03.941Z,102508.05
2019-02-22T08:36:38.147Z,102512.00
2019-02-22T08:39:12.535Z,102512.06
2019-02-22T08:41:45.873Z,102515.72
2019-02-22T08:44:19.195Z,102514.53
2019-02-22T08:46:52.562Z,102508.11
2019-02-22T08:49:25.871Z,102505.53
2019-02-22T08:52:00.704Z,102517.59
2019-02-22T08:54:34.031Z,102528.67
2019-02-22T08:57:07.334Z,102524.04
2019-02-22T08:59:40.668Z,102528.78
2019-02-22T09:02:13.946Z,102534.14
2019-02-22T09:04:47.258Z,102529.47
2019-02-22T09:07:20.546Z,102530.06
2019-02-22T09:09:53.865Z,102531.22
2019-02-22T09:12:27.129Z,102531.72
2019-02-22T09:15:00.493Z,102539.04
2019-02-22T09:17:33.788Z,102539.47
2019-02-22T09:20:09.723Z,102548.66
2019-02-22T09:22:43.014Z,102543.09
2019-02-22T09:25:16.332Z,102542.23
2019-02-22T09:27:49.659Z,102548.42
2019-02-22T09:30:22.937Z,102549.28
2019-02-22T09:32:56.217Z,102549.19
2019-02-22T09:35:29.533Z,102554.98
2019-02-22T09:38:04.315Z,102546.75
2019-02-22T09:40:37.614Z,102548.11
2019-02-22T09:43:11.185Z,102550.80
2019-02-22T09:45:44.486Z,102546.38
2019-02-22T09:48:17.787Z,102550.59
2019-02-22T09:50:51.113Z,102553.17
2019-02-22T09:53:24.404Z,102556.33
2019-02-22T09:55:57.690Z,102551.55
2019-02-22T09:58:31.002Z,102554.19
2019-02-22T10:01:04.389Z,102553.13
2019-02-22T10:03:37.663Z,102555.83
2019-02-22T10:06:10.965Z,102560.66
2019-02-22T10:08:44.296Z,102564.61
2019-02-22T10:11:18.782Z,102569.83
2019-02-22T10:13:52.072Z,102571.18
2019-02-22T10:16:27.501Z,102576.46
2019-02-22T10:19:00.390Z,102568.92
2019-02-22T10:21:33.792Z,102568.92
2019-02-22T10:24:07.081Z,102559.30
2019-02-22T10:26:40.660Z,102559.30
2019-02-22T10:29:13.937Z,102557.14
2019-02-22T10:31:47.272Z,102551.02
2019-02-22T10:34:20.548Z,102562.89
2019-02-22T10:36:53.851Z,102556.68
2019-02-22T10:39:27.141Z,102578.72
2019-02-22T10:42:00.542Z,102578.66
2019-02-22T10:44:33.866Z,102581.70
2019-02-22T10:47:07.182Z,102579.49
2019-02-22T10:49:40.481Z,102586.08
2019-02-22T10:52:13.791Z,102586.02
2019-02-22T10:54:47.116Z,102582.91
2019-02-22T10:57:20.379Z,102590.92
2019-02-22T10:59:53.657Z,102588.20
2019-02-22T11:02:26.961Z,102588.20
2019-02-22T11:05:00.313Z,102579.09
2019-02-22T11:07:33.702Z,102593.69
2019-02-22T11:10:09.922Z,102582.69
2019-02-22T11:12:43.292Z,102582.69
2019-02-22T11:15:16.626Z,102569.52
2019-02-22T11:17:49.927Z,102562.37
2019-02-22T11:20:23.219Z,102575.55
2019-02-22T11:22:56.568Z,102578.70
2019-02-22T11:25:29.900Z,102585.09
2019-02-22T11:28:03.187Z,102584.91
2019-02-22T11:30:36.603Z,102592.41
2019-02-22T11:33:10.986Z,102593.72
2019-02-22T11:35:44.277Z,102594.56
2019-02-22T11:38:17.547Z,102608.12
2019-02-22T11:40:50.867Z,102616.41
2019-02-22T11:43:24.161Z,102613.37
2019-02-22T11:45:57.454Z,102610.31
2019-02-22T11:48:30.741Z,102608.12
2019-02-22T11:51:04.040Z,102614.34
2019-02-22T11:53:37.387Z,102613.36
2019-02-22T11:56:11.641Z,102606.39
2019-02-22T11:58:44.899Z,102611.69
2019-02-22T12:01:18.201Z,102612.16
2019-02-22T12:03:51.476Z,102612.59
2019-02-22T12:06:24.804Z,102617.88
2019-02-22T12:08:58.080Z,102621.44
2019-02-22T12:11:31.386Z,102617.48
2019-02-22T12:14:04.740Z,102618.80
2019-02-22T12:16:38.077Z,102618.80
2019-02-22T12:19:11.371Z,102607.81
2019-02-22T12:21:44.686Z,102610.44
2019-02-22T12:24:17.961Z,102623.21
2019-02-22T12:26:51.248Z,102623.66
2019-02-22T12:29:24.516Z,102626.73
2019-02-22T12:31:57.816Z,102632.89
2019-02-22T12:34:32.728Z,102627.61
2019-02-22T12:37:06.169Z,102625.41
2019-02-22T12:39:39.516Z,102622.78
2019-02-22T12:42:12.809Z,102617.94
2019-02-22T12:44:46.084Z,102611.04
2019-02-22T12:47:19.481Z,102619.19
2019-02-22T12:49:52.857Z,102632.91
2019-02-22T12:52:26.154Z,102635.55
2019-02-22T12:54:59.429Z,102628.05
2019-02-22T12:57:32.747Z,102639.52
2019-02-22T13:00:12.436Z,102639.00
2019-02-22T13:02:45.749Z,102631.05
2019-02-22T13:05:21.838Z,102631.05
2019-02-22T13:07:55.160Z,102616.90
2019-02-22T13:10:28.460Z,102645.98
2019-02-22T13:13:01.785Z,102645.56
2019-02-22T13:15:35.075Z,102622.64
2019-02-22T13:18:08.442Z,102640.27
2019-02-22T13:20:41.698Z,102649.52
2019-02-22T13:23:14.988Z,102644.20
2019-02-22T13:25:49.307Z,102655.58
2019-02-22T13:28:22.616Z,102655.58
2019-02-22T13:30:55.896Z,102660.78
2019-02-22T13:33:29.197Z,102657.25
2019-02-22T13:36:02.504Z,102652.52
2019-02-22T13:38:35.809Z,102661.74
2019-02-22T13:41:09.114Z,102660.93
2019-02-22T13:43:42.415Z,102658.67
2019-02-22T13:46:15.712Z,102662.70
2019-02-22T13:48:49.121Z,102658.22
2019-02-22T13:51:22.478Z,102658.22
2019-02-22T13:53:55.774Z,102677.17
2019-02-22T13:56:30.078Z,102673.23
2019-02-22T13:59:03.596Z,102671.89
2019-02-22T14:01:36.955Z,102673.19
2019-02-22T14:04:10.235Z,102685.92
2019-02-22T14:06:43.528Z,102685.49
2019-02-22T14:09:16.810Z,102679.77
2019-02-22T14:11:50.137Z,102676.23
2019-02-22T14:14:23.446Z,102681.08
2019-02-22T14:16:56.827Z,102681.94
2019-02-22T14:19:30.147Z,102682.38
2019-02-22T14:22:04.132Z,102675.80
2019-02-22T14:24:37.424Z,102683.27
2019-02-22T14:27:10.797Z,102688.08
2019-02-22T14:29:44.119Z,102680.99
2019-02-22T14:32:17.453Z,102694.58
2019-02-22T14:34:50.720Z,102684.06
2019-02-22T14:37:24.028Z,102688.88
2019-02-22T14:40:03.025Z,102686.73
2019-02-22T14:42:32.451Z,102682.73
2019-02-22T14:45:08.502Z,102687.22
2019-02-22T14:47:41.797Z,102691.88
2019-02-22T14:50:18.578Z,102688.41
2019-02-22T14:52:51.882Z,102694.58
2019-02-22T14:55:25.226Z,102692.86
2019-02-22T14:57:58.517Z,102704.25
2019-02-22T15:00:32.641Z,102709.91
2019-02-22T15:03:05.934Z,102715.66
2019-02-22T15:05:39.235Z,102705.53
2019-02-22T15:08:12.547Z,102708.59
2019-02-22T15:10:45.843Z,102712.13
2019-02-22T15:13:19.201Z,102703.25
2019-02-22T15:16:03.964Z,102703.25
2019-02-22T15:18:37.608Z,102713.80
2019-02-22T15:21:10.941Z,102711.98
2019-02-22T15:23:44.228Z,102710.55
2019-02-22T15:26:17.537Z,102702.54
2019-02-22T15:28:50.920Z,102703.34
2019-02-22T15:31:24.226Z,102704.95
2019-02-22T15:33:57.581Z,102707.53
2019-02-22T15:36:30.831Z,102710.11
2019-02-22T15:39:05.146Z,102705.63
2019-02-22T15:41:38.434Z,102709.89
2019-02-22T15:44:12.764Z,102706.00
2019-02-22T15:46:46.005Z,102709.02
2019-02-22T15:49:19.327Z,102714.69
2019-02-22T15:51:52.608Z,102714.45
2019-02-22T15:54:25.910Z,102724.91
2019-02-22T15:56:59.196Z,102728.23
2019-02-22T15:59:32.525Z,102733.34
2019-02-22T16:02:06.352Z,102722.33
2019-02-22T16:04:45.161Z,102722.64
2019-02-22T16:07:18.735Z,102724.37
2019-02-22T16:09:52.130Z,102722.52
2019-02-22T16:12:25.603Z,102714.99
2019-02-22T16:14:59.941Z,102709.61
2019-02-22T16:17:33.236Z,102707.34
2019-02-22T16:20:08.182Z,102714.22
2019-02-22T16:22:41.920Z,102717.19
2019-02-22T16:25:19.683Z,102713.09
2019-02-22T16:27:50.268Z,102711.22
2019-02-22T16:30:26.744Z,102715.02
2019-02-22T16:33:00.028Z,102710.93
2019-02-22T16:35:33.912Z,102711.20
2019-02-22T16:38:07.204Z,102713.31
2019-02-22T16:40:40.580Z,102713.16
2019-02-22T16:43:13.858Z,102712.92
2019-02-22T16:45:47.152Z,102712.33
2019-02-22T16:48:20.422Z,102721.86
2019-02-22T16:50:53.711Z,102723.80
2019-02-22T16:53:27.022Z,102731.58
2019-02-22T16:56:00.399Z,102730.73
2019-02-22T16:58:33.682Z,102727.38
2019-02-22T17:01:07.056Z,102732.55
2019-02-22T17:03:40.439Z,102729.22
2019-02-22T17:06:13.791Z,102735.17
2019-02-22T17:08:47.075Z,102738.78
2019-02-22T17:11:21.430Z,102737.45
2019-02-22T17:13:54.727Z,102731.87
2019-02-22T17:16:28.021Z,102742.56
2019-02-22T17:19:02.163Z,102744.54
2019-02-22T17:21:35.458Z,102737.20
2019-02-22T17:24:08.748Z,102741.73
2019-02-22T17:26:42.066Z,102748.50
2019-02-22T17:29:15.348Z,102752.23
2019-02-22T17:31:48.654Z,102751.03
2019-02-22T17:34:21.962Z,102757.73
2019-02-22T17:36:55.260Z,102762.05
2019-02-22T17:39:28.554Z,102760.20
2019-02-22T17:42:01.883Z,102767.84
2019-02-22T17:44:35.160Z,102769.48
2019-02-22T17:47:10.005Z,102769.61
2019-02-22T17:49:43.314Z,102769.48
2019-02-22T17:52:19.023Z,102765.94
2019-02-22T17:54:52.432Z,102772.41
2019-02-22T17:57:25.712Z,102769.31
2019-02-22T17:59:59.040Z,102775.59
2019-02-22T18:02:33.560Z,102775.86
2019-02-22T18:05:08.913Z,102776.34
2019-02-22T18:07:42.192Z,102775.64
2019-02-22T18:10:15.519Z,102778.37
2019-02-22T18:12:52.256Z,102776.52
2019-02-22T18:15:25.555Z,102778.20
2019-02-22T18:17:58.839Z,102778.08
2019-02-22T18:20:33.845Z,102774.09
2019-02-22T18:23:07.142Z,102783.46
2019-02-22T18:25:40.435Z,102783.24
2019-02-22T18:28:13.823Z,102773.67
2019-02-22T18:30:47.135Z,102775.08
2019-02-22T18:33:20.483Z,102779.86
2019-02-22T18:35:55.308Z,102780.15
2019-02-22T18:38:28.610Z,102778.34
2019-02-22T18:41:01.955Z,102782.37
2019-02-22T18:43:35.356Z,102783.64
2019-02-22T18:46:08.672Z,102788.05
2019-02-22T18:48:41.962Z,102792.66
2019-02-22T18:51:15.299Z,102797.81
2019-02-22T18:53:48.603Z,102794.95
2019-02-22T18:56:21.902Z,102793.69
2019-02-22T18:58:55.223Z,102797.05
2019-02-22T19:01:28.509Z,102799.73
2019-02-22T19:04:01.800Z,102800.96
2019-02-22T19:06:35.135Z,102802.98
2019-02-22T19:09:08.418Z,102810.75
2019-02-22T19:11:41.717Z,102815.70
2019-02-22T19:14:15.004Z,102823.02
2019-02-22T19:16:48.311Z,102818.59
2019-02-22T19:19:21.586Z,102820.41
2019-02-22T19:21:54.972Z,102817.42
2019-02-22T19:24:28.258Z,102823.03
2019-02-22T19:27:01.598Z,102819.67
2019-02-22T19:29:34.900Z,102820.83
2019-02-22T19:32:08.194Z,102826.02
2019-02-22T19:34:41.473Z,102818.91
2019-02-22T19:37:14.772Z,102821.72
2019-02-22T19:39:48.063Z,102819.71
2019-02-22T19:42:22.533Z,102824.05
2019-02-22T19:44:55.897Z,102824.06
2019-02-22T19:47:29.190Z,102826.39
2019-02-22T19:50:02.841Z,102830.50
2019-02-22T19:52:36.647Z,102827.08
2019-02-22T19:55:15.156Z,102831.79
2019-02-22T19:57:48.478Z,102833.06
2019-02-22T20:00:21.826Z,102837.58
2019-02-22T20:02:55.131Z,102837.41
2019-02-22T20:05:28.426Z,102834.03
2019-02-22T20:08:01.733Z,102836.27
2019-02-22T20:10:35.111Z,102829.55
2019-02-22T20:13:09.431Z,102836.39
2019-02-22T20:15:42.733Z,102833.90
2019-02-22T20:18:16.032Z,102836.11
2019-02-22T20:20:49.297Z,102841.62
2019-02-22T20:23:22.600Z,102849.50
2019-02-22T20:25:55.868Z,102843.68
2019-02-22T20:28:29.165Z,102851.03
2019-02-22T20:31:02.447Z,102855.31
2019-02-22T20:33:35.793Z,102858.13
2019-02-22T20:36:09.077Z,102860.64
2019-02-22T20:38:42.506Z,102864.48
2019-02-22T20:41:15.758Z,102864.05
2019-02-22T20:43:49.085Z,102868.83
2019-02-22T20:46:22.340Z,102870.13
2019-02-22T20:49:00.823Z,102876.78
2019-02-22T20:51:31.845Z,102878.24
2019-02-22T20:54:05.144Z,102875.88
2019-02-22T20:56:38.325Z,102877.22
2019-02-22T20:59:11.653Z,102881.29
2019-02-22T21:01:44.951Z,102882.89
2019-02-22T21:04:18.278Z,102883.52
2019-02-22T21:06:51.542Z,102882.05
2019-02-22T21:09:24.870Z,102888.53
2019-02-22T21:11:58.186Z,102881.59
2019-02-22T21:14:31.520Z,102880.84
2019-02-22T21:17:05.648Z,102888.28
2019-02-22T21:19:38.927Z,102893.70
2019-02-22T21:22:12.220Z,102882.45
2019-02-22T21:24:45.513Z,102876.42
2019-02-22T21:27:18.893Z,102881.02
2019-02-22T21:29:52.239Z,102882.78
2019-02-22T21:32:25.533Z,102879.80
2019-02-22T21:34:58.838Z,102882.52
2019-02-22T21:37:32.134Z,102878.56
2019-02-22T21:40:08.167Z,102876.31
2019-02-22T21:42:41.596Z,102877.70
2019-02-22T21:45:16.036Z,102871.84
2019-02-22T21:47:54.671Z,102880.03
2019-02-22T21:50:24.345Z,102876.26
2019-02-22T21:52:57.697Z,102881.75
2019-02-22T21:55:31.074Z,102881.78
2019-02-22T21:58:04.406Z,102880.45
2019-02-22T22:00:37.821Z,102876.25
2019-02-22T22:03:11.113Z,102880.18
2019-02-22T22:05:44.384Z,102872.63
2019-02-22T22:08:17.685Z,102872.00
2019-02-22T22:10:50.991Z,102870.62
2019-02-22T22:13:24.306Z,102864.87
2019-02-22T22:15:57.585Z,102867.48
2019-02-22T22:18:38.412Z,102868.33
2019-02-22T22:21:05.918Z,102869.55
2019-02-22T22:23:39.234Z,102862.41
2019-02-22T22:26:12.516Z,102865.13
2019-02-22T22:28:45.828Z,102867.13
2019-02-22T22:31:19.116Z,102872.70
2019-02-22T22:33:52.434Z,102881.00
2019-02-22T22:36:25.720Z,102884.44
2019-02-22T22:38:59.026Z,102886.41
2019-02-22T22:41:32.296Z,102884.89
2019-02-22T22:44:06.708Z,102884.52
2019-02-22T22:46:39.986Z,102888.78
2019-02-22T22:49:13.278Z,102876.75
2019-02-22T22:51:46.599Z,102884.28
2019-02-22T22:54:19.928Z,102878.74
2019-02-22T22:56:53.202Z,102882.58
2019-02-22T22:59:26.499Z,102874.53
2019-02-22T23:01:59.987Z,102875.73
2019-02-22T23:04:33.273Z,102883.12
2019-02-22T23:07:06.612Z,102882.47
2019-02-22T23:09:39.957Z,102883.72
2019-02-22T23:12:13.231Z,102880.85
2019-02-22T23:14:46.530Z,102898.80
2019-02-22T23:17:19.884Z,102902.81
2019-02-22T23:19:53.327Z,102914.78
2019-02-22T23:22:26.578Z,102912.66
2019-02-22T23:24:59.872Z,102914.67
2019-02-22T23:27:33.161Z,102922.86
2019-02-22T23:30:08.000Z,102927.36
2019-02-22T23:32:41.305Z,102925.41
2019-02-22T23:35:14.641Z,102922.90
2019-02-22T23:37:47.917Z,102927.67
2019-02-22T23:40:21.231Z,102928.16
2019-02-22T23:42:54.509Z,102934.42
2019-02-22T23:45:27.829Z,102933.65
2019-02-22T23:48:01.115Z,102934.63
2019-02-22T23:50:34.423Z,102935.04
2019-02-22T23:53:07.692Z,102940.13
2019-02-22T23:55:41.023Z,102944.00
2019-02-22T23:58:14.319Z,102943.19
